sensor_id;sensor_type;location;lat;lon;timestamp;P1;durP1;ratioP1;P2;durP2;ratioP2
68792;SDS011;55778;54.346;10.210;2024-01-10T00:00:12;47.38;;;7.18;;
68792;SDS011;55778;54.346;10.210;2024-01-10T00:02:41;59.17;;;7.18;;
68792;SDS011;55778;54.346;10.210;2024-01-10T00:05:14;42.88;;;6.00;;
68792;SDS011;55778;54.346;10.210;2024-01-10T00:07:39;61.10;;;7.07;;
68792;SDS011;55778;54.346;10.210;2024-01-10T00:10:13;84.57;;;9.02;;
68792;SDS011;55778;54.346;10.210;2024-01-10T00:12:47;62.88;;;7.65;;
68792;SDS011;55778;54.346;10.210;2024-01-10T00:15:16;58.70;;;8.20;;
68792;SDS011;55778;54.346;10.210;2024-01-10T00:18:08;25.08;;;6.40;;
68792;SDS011;55778;54.346;10.210;2024-01-10T00:20:35;58.05;;;7.88;;
68792;SDS011;55778;54.346;10.210;2024-01-10T00:23:03;94.90;;;9.40;;
68792;SDS011;55778;54.346;10.210;2024-01-10T00:25:34;36.92;;;7.57;;
68792;SDS011;55778;54.346;10.210;2024-01-10T00:28:05;19.25;;;6.55;;
68792;SDS011;55778;54.346;10.210;2024-01-10T00:30:33;34.95;;;7.32;;
68792;SDS011;55778;54.346;10.210;2024-01-10T00:33:01;95.00;;;9.02;;
68792;SDS011;55778;54.346;10.210;2024-01-10T00:35:26;16.25;;;5.63;;
68792;SDS011;55778;54.346;10.210;2024-01-10T00:37:53;56.78;;;7.95;;
68792;SDS011;55778;54.346;10.210;2024-01-10T00:40:31;13.70;;;5.60;;
68792;SDS011;55778;54.346;10.210;2024-01-10T00:43:02;20.40;;;5.90;;
68792;SDS011;55778;54.346;10.210;2024-01-10T00:45:29;34.90;;;7.18;;
68792;SDS011;55778;54.346;10.210;2024-01-10T00:47:59;30.85;;;6.85;;
68792;SDS011;55778;54.346;10.210;2024-01-10T00:50:27;20.23;;;6.85;;
68792;SDS011;55778;54.346;10.210;2024-01-10T00:52:55;20.00;;;6.35;;
68792;SDS011;55778;54.346;10.210;2024-01-10T00:55:39;17.52;;;6.28;;
68792;SDS011;55778;54.346;10.210;2024-01-10T00:58:05;19.50;;;5.88;;
68792;SDS011;55778;54.346;10.210;2024-01-10T01:00:38;63.17;;;8.10;;
68792;SDS011;55778;54.346;10.210;2024-01-10T01:03:09;68.57;;;8.18;;
68792;SDS011;55778;54.346;10.210;2024-01-10T01:05:34;91.32;;;9.23;;
68792;SDS011;55778;54.346;10.210;2024-01-10T01:08:02;23.05;;;7.00;;
68792;SDS011;55778;54.346;10.210;2024-01-10T01:10:41;24.90;;;7.13;;
68792;SDS011;55778;54.346;10.210;2024-01-10T01:13:14;21.75;;;6.90;;
68792;SDS011;55778;54.346;10.210;2024-01-10T01:15:47;54.10;;;8.65;;
68792;SDS011;55778;54.346;10.210;2024-01-10T01:18:20;25.77;;;6.88;;
68792;SDS011;55778;54.346;10.210;2024-01-10T01:20:53;38.47;;;8.45;;
68792;SDS011;55778;54.346;10.210;2024-01-10T01:23:18;87.78;;;9.27;;
68792;SDS011;55778;54.346;10.210;2024-01-10T01:25:44;65.20;;;8.88;;
68792;SDS011;55778;54.346;10.210;2024-01-10T01:28:10;87.03;;;9.10;;
68792;SDS011;55778;54.346;10.210;2024-01-10T01:30:37;51.72;;;8.15;;
68792;SDS011;55778;54.346;10.210;2024-01-10T01:33:13;21.88;;;6.50;;
68792;SDS011;55778;54.346;10.210;2024-01-10T01:35:42;74.03;;;9.15;;
68792;SDS011;55778;54.346;10.210;2024-01-10T01:38:09;61.00;;;7.82;;
68792;SDS011;55778;54.346;10.210;2024-01-10T01:40:47;62.97;;;8.32;;
68792;SDS011;55778;54.346;10.210;2024-01-10T01:43:23;51.50;;;8.20;;
68792;SDS011;55778;54.346;10.210;2024-01-10T01:45:55;126.85;;;9.45;;
68792;SDS011;55778;54.346;10.210;2024-01-10T01:48:27;94.43;;;8.25;;
68792;SDS011;55778;54.346;10.210;2024-01-10T01:50:56;68.78;;;7.68;;
68792;SDS011;55778;54.346;10.210;2024-01-10T01:53:23;55.67;;;7.35;;
68792;SDS011;55778;54.346;10.210;2024-01-10T01:55:49;84.10;;;9.80;;
68792;SDS011;55778;54.346;10.210;2024-01-10T01:58:15;38.75;;;6.85;;
68792;SDS011;55778;54.346;10.210;2024-01-10T02:00:50;50.70;;;7.57;;
68792;SDS011;55778;54.346;10.210;2024-01-10T02:03:29;79.97;;;8.52;;
68792;SDS011;55778;54.346;10.210;2024-01-10T02:05:56;58.53;;;8.10;;
68792;SDS011;55778;54.346;10.210;2024-01-10T02:08:43;47.38;;;7.45;;
68792;SDS011;55778;54.346;10.210;2024-01-10T02:11:19;15.57;;;5.53;;
68792;SDS011;55778;54.346;10.210;2024-01-10T02:13:52;24.98;;;5.55;;
68792;SDS011;55778;54.346;10.210;2024-01-10T02:16:57;34.58;;;6.07;;
68792;SDS011;55778;54.346;10.210;2024-01-10T02:19:29;36.10;;;6.57;;
68792;SDS011;55778;54.346;10.210;2024-01-10T02:22:02;45.72;;;6.38;;
68792;SDS011;55778;54.346;10.210;2024-01-10T02:24:38;25.30;;;5.88;;
68792;SDS011;55778;54.346;10.210;2024-01-10T02:27:10;18.15;;;5.32;;
68792;SDS011;55778;54.346;10.210;2024-01-10T02:29:36;18.45;;;5.78;;
68792;SDS011;55778;54.346;10.210;2024-01-10T02:32:10;18.90;;;6.00;;
68792;SDS011;55778;54.346;10.210;2024-01-10T02:34:40;22.88;;;6.57;;
68792;SDS011;55778;54.346;10.210;2024-01-10T02:37:06;19.63;;;6.15;;
68792;SDS011;55778;54.346;10.210;2024-01-10T02:39:34;29.77;;;6.88;;
68792;SDS011;55778;54.346;10.210;2024-01-10T02:47:02;45.28;;;7.93;;
68792;SDS011;55778;54.346;10.210;2024-01-10T02:49:30;18.92;;;6.03;;
68792;SDS011;55778;54.346;10.210;2024-01-10T02:51:59;24.20;;;6.53;;
68792;SDS011;55778;54.346;10.210;2024-01-10T02:54:40;16.30;;;5.68;;
68792;SDS011;55778;54.346;10.210;2024-01-10T02:57:15;53.53;;;7.70;;
68792;SDS011;55778;54.346;10.210;2024-01-10T02:59:44;20.50;;;6.90;;
68792;SDS011;55778;54.346;10.210;2024-01-10T03:02:25;26.95;;;8.98;;
68792;SDS011;55778;54.346;10.210;2024-01-10T03:07:53;52.55;;;15.77;;
68792;SDS011;55778;54.346;10.210;2024-01-10T03:10:28;31.33;;;10.35;;
68792;SDS011;55778;54.346;10.210;2024-01-10T03:13:02;49.88;;;10.13;;
68792;SDS011;55778;54.346;10.210;2024-01-10T03:15:39;32.92;;;9.10;;
68792;SDS011;55778;54.346;10.210;2024-01-10T03:18:13;56.88;;;10.45;;
68792;SDS011;55778;54.346;10.210;2024-01-10T03:21:13;24.23;;;7.47;;
68792;SDS011;55778;54.346;10.210;2024-01-10T03:24:03;33.83;;;8.88;;
68792;SDS011;55778;54.346;10.210;2024-01-10T03:26:34;56.15;;;10.40;;
68792;SDS011;55778;54.346;10.210;2024-01-10T03:29:17;38.28;;;9.63;;
68792;SDS011;55778;54.346;10.210;2024-01-10T03:31:47;42.38;;;9.68;;
68792;SDS011;55778;54.346;10.210;2024-01-10T03:34:12;36.28;;;11.40;;
68792;SDS011;55778;54.346;10.210;2024-01-10T03:36:39;30.60;;;8.98;;
68792;SDS011;55778;54.346;10.210;2024-01-10T03:39:10;41.13;;;10.40;;
68792;SDS011;55778;54.346;10.210;2024-01-10T03:41:36;39.00;;;9.27;;
68792;SDS011;55778;54.346;10.210;2024-01-10T03:44:04;79.00;;;12.65;;
68792;SDS011;55778;54.346;10.210;2024-01-10T03:46:40;36.53;;;10.50;;
68792;SDS011;55778;54.346;10.210;2024-01-10T03:49:30;39.50;;;10.48;;
68792;SDS011;55778;54.346;10.210;2024-01-10T03:52:05;59.15;;;11.27;;
68792;SDS011;55778;54.346;10.210;2024-01-10T03:54:52;27.35;;;9.85;;
68792;SDS011;55778;54.346;10.210;2024-01-10T03:57:20;44.13;;;10.45;;
68792;SDS011;55778;54.346;10.210;2024-01-10T03:59:51;43.28;;;14.65;;
68792;SDS011;55778;54.346;10.210;2024-01-10T04:02:19;31.65;;;10.40;;
68792;SDS011;55778;54.346;10.210;2024-01-10T04:05:16;30.67;;;10.15;;
68792;SDS011;55778;54.346;10.210;2024-01-10T04:07:45;30.95;;;10.40;;
68792;SDS011;55778;54.346;10.210;2024-01-10T04:10:16;36.60;;;11.13;;
68792;SDS011;55778;54.346;10.210;2024-01-10T04:12:46;40.13;;;11.10;;
68792;SDS011;55778;54.346;10.210;2024-01-10T04:15:14;38.58;;;10.65;;
68792;SDS011;55778;54.346;10.210;2024-01-10T04:17:40;34.22;;;10.68;;
68792;SDS011;55778;54.346;10.210;2024-01-10T04:20:24;33.13;;;9.75;;
68792;SDS011;55778;54.346;10.210;2024-01-10T04:22:59;50.55;;;11.30;;
68792;SDS011;55778;54.346;10.210;2024-01-10T04:25:30;43.33;;;11.35;;
68792;SDS011;55778;54.346;10.210;2024-01-10T04:28:09;36.75;;;11.52;;
68792;SDS011;55778;54.346;10.210;2024-01-10T04:31:14;40.33;;;11.75;;
68792;SDS011;55778;54.346;10.210;2024-01-10T04:34:11;35.90;;;11.05;;
68792;SDS011;55778;54.346;10.210;2024-01-10T04:36:51;31.88;;;10.38;;
68792;SDS011;55778;54.346;10.210;2024-01-10T04:39:21;35.15;;;10.30;;
68792;SDS011;55778;54.346;10.210;2024-01-10T04:42:06;32.63;;;10.55;;
68792;SDS011;55778;54.346;10.210;2024-01-10T04:44:40;32.22;;;10.75;;
68792;SDS011;55778;54.346;10.210;2024-01-10T04:47:27;39.08;;;12.13;;
68792;SDS011;55778;54.346;10.210;2024-01-10T04:50:06;32.47;;;9.60;;
68792;SDS011;55778;54.346;10.210;2024-01-10T04:52:34;34.10;;;10.27;;
68792;SDS011;55778;54.346;10.210;2024-01-10T04:55:08;48.85;;;14.77;;
68792;SDS011;55778;54.346;10.210;2024-01-10T04:57:41;42.80;;;13.57;;
68792;SDS011;55778;54.346;10.210;2024-01-10T05:00:19;43.40;;;13.35;;
68792;SDS011;55778;54.346;10.210;2024-01-10T05:02:57;35.67;;;12.63;;
68792;SDS011;55778;54.346;10.210;2024-01-10T05:05:29;34.00;;;11.45;;
68792;SDS011;55778;54.346;10.210;2024-01-10T05:08:00;38.53;;;12.15;;
68792;SDS011;55778;54.346;10.210;2024-01-10T05:10:28;34.60;;;11.25;;
68792;SDS011;55778;54.346;10.210;2024-01-10T05:13:07;38.88;;;12.05;;
68792;SDS011;55778;54.346;10.210;2024-01-10T05:15:46;34.03;;;10.65;;
68792;SDS011;55778;54.346;10.210;2024-01-10T05:18:17;53.17;;;16.52;;
68792;SDS011;55778;54.346;10.210;2024-01-10T05:20:48;56.88;;;16.48;;
68792;SDS011;55778;54.346;10.210;2024-01-10T05:23:17;30.90;;;11.10;;
68792;SDS011;55778;54.346;10.210;2024-01-10T05:25:43;26.55;;;9.57;;
68792;SDS011;55778;54.346;10.210;2024-01-10T05:28:16;27.77;;;9.43;;
68792;SDS011;55778;54.346;10.210;2024-01-10T05:30:42;25.25;;;8.80;;
68792;SDS011;55778;54.346;10.210;2024-01-10T05:33:17;27.55;;;10.35;;
68792;SDS011;55778;54.346;10.210;2024-01-10T05:35:50;29.15;;;9.63;;
68792;SDS011;55778;54.346;10.210;2024-01-10T05:38:15;32.60;;;9.60;;
68792;SDS011;55778;54.346;10.210;2024-01-10T05:40:46;31.00;;;9.93;;
68792;SDS011;55778;54.346;10.210;2024-01-10T05:43:12;31.55;;;10.35;;
68792;SDS011;55778;54.346;10.210;2024-01-10T05:45:50;31.10;;;9.95;;
68792;SDS011;55778;54.346;10.210;2024-01-10T05:48:16;28.73;;;10.00;;
68792;SDS011;55778;54.346;10.210;2024-01-10T05:50:42;26.98;;;10.43;;
68792;SDS011;55778;54.346;10.210;2024-01-10T05:53:08;27.95;;;10.10;;
68792;SDS011;55778;54.346;10.210;2024-01-10T05:55:40;25.15;;;8.98;;
68792;SDS011;55778;54.346;10.210;2024-01-10T05:58:05;26.83;;;9.07;;
68792;SDS011;55778;54.346;10.210;2024-01-10T06:00:31;26.70;;;9.15;;
68792;SDS011;55778;54.346;10.210;2024-01-10T06:03:00;26.35;;;9.60;;
68792;SDS011;55778;54.346;10.210;2024-01-10T06:05:28;28.40;;;9.65;;
68792;SDS011;55778;54.346;10.210;2024-01-10T06:08:15;29.13;;;10.05;;
68792;SDS011;55778;54.346;10.210;2024-01-10T06:10:41;24.55;;;9.43;;
68792;SDS011;55778;54.346;10.210;2024-01-10T06:13:14;27.38;;;9.63;;
68792;SDS011;55778;54.346;10.210;2024-01-10T06:18:16;28.00;;;9.20;;
68792;SDS011;55778;54.346;10.210;2024-01-10T06:20:51;29.50;;;10.65;;
68792;SDS011;55778;54.346;10.210;2024-01-10T06:23:23;34.08;;;13.07;;
68792;SDS011;55778;54.346;10.210;2024-01-10T06:25:55;29.52;;;11.13;;
68792;SDS011;55778;54.346;10.210;2024-01-10T06:28:26;27.95;;;9.50;;
68792;SDS011;55778;54.346;10.210;2024-01-10T06:30:57;28.35;;;9.50;;
68792;SDS011;55778;54.346;10.210;2024-01-10T06:33:31;26.92;;;9.25;;
68792;SDS011;55778;54.346;10.210;2024-01-10T06:35:57;23.80;;;7.90;;
68792;SDS011;55778;54.346;10.210;2024-01-10T06:38:23;20.95;;;7.65;;
68792;SDS011;55778;54.346;10.210;2024-01-10T06:40:49;22.25;;;7.65;;
68792;SDS011;55778;54.346;10.210;2024-01-10T06:43:15;23.27;;;7.03;;
68792;SDS011;55778;54.346;10.210;2024-01-10T06:45:41;24.20;;;7.22;;
68792;SDS011;55778;54.346;10.210;2024-01-10T06:48:07;21.15;;;6.72;;
68792;SDS011;55778;54.346;10.210;2024-01-10T06:50:33;30.88;;;10.90;;
68792;SDS011;55778;54.346;10.210;2024-01-10T06:52:58;23.65;;;7.18;;
68792;SDS011;55778;54.346;10.210;2024-01-10T06:55:24;26.73;;;7.05;;
68792;SDS011;55778;54.346;10.210;2024-01-10T06:57:49;22.23;;;7.78;;
68792;SDS011;55778;54.346;10.210;2024-01-10T07:00:18;21.73;;;8.85;;
68792;SDS011;55778;54.346;10.210;2024-01-10T07:02:45;21.65;;;7.55;;
68792;SDS011;55778;54.346;10.210;2024-01-10T07:05:10;20.85;;;7.30;;
68792;SDS011;55778;54.346;10.210;2024-01-10T07:07:36;24.15;;;8.23;;
68792;SDS011;55778;54.346;10.210;2024-01-10T07:10:01;18.90;;;6.82;;
68792;SDS011;55778;54.346;10.210;2024-01-10T07:12:32;18.95;;;7.25;;
68792;SDS011;55778;54.346;10.210;2024-01-10T07:14:58;19.85;;;7.40;;
68792;SDS011;55778;54.346;10.210;2024-01-10T07:17:24;18.70;;;6.75;;
68792;SDS011;55778;54.346;10.210;2024-01-10T07:19:49;21.88;;;7.15;;
68792;SDS011;55778;54.346;10.210;2024-01-10T07:22:15;23.67;;;8.63;;
68792;SDS011;55778;54.346;10.210;2024-01-10T07:24:43;27.92;;;9.60;;
68792;SDS011;55778;54.346;10.210;2024-01-10T07:27:08;23.77;;;8.75;;
68792;SDS011;55778;54.346;10.210;2024-01-10T07:29:34;26.33;;;8.40;;
68792;SDS011;55778;54.346;10.210;2024-01-10T07:32:00;23.52;;;8.65;;
68792;SDS011;55778;54.346;10.210;2024-01-10T07:34:25;26.45;;;9.48;;
68792;SDS011;55778;54.346;10.210;2024-01-10T07:36:50;22.40;;;8.88;;
68792;SDS011;55778;54.346;10.210;2024-01-10T07:39:16;24.85;;;9.35;;
68792;SDS011;55778;54.346;10.210;2024-01-10T07:41:43;24.88;;;8.32;;
68792;SDS011;55778;54.346;10.210;2024-01-10T07:44:09;23.48;;;8.95;;
68792;SDS011;55778;54.346;10.210;2024-01-10T07:46:35;23.33;;;7.63;;
68792;SDS011;55778;54.346;10.210;2024-01-10T07:49:04;23.00;;;8.27;;
68792;SDS011;55778;54.346;10.210;2024-01-10T07:51:30;24.42;;;7.90;;
68792;SDS011;55778;54.346;10.210;2024-01-10T07:53:57;21.58;;;7.20;;
68792;SDS011;55778;54.346;10.210;2024-01-10T07:56:24;20.17;;;7.43;;
68792;SDS011;55778;54.346;10.210;2024-01-10T07:58:49;20.52;;;7.97;;
68792;SDS011;55778;54.346;10.210;2024-01-10T08:01:17;22.00;;;7.57;;
68792;SDS011;55778;54.346;10.210;2024-01-10T08:03:43;20.83;;;7.00;;
68792;SDS011;55778;54.346;10.210;2024-01-10T08:06:08;19.38;;;6.50;;
68792;SDS011;55778;54.346;10.210;2024-01-10T08:08:35;18.83;;;7.50;;
68792;SDS011;55778;54.346;10.210;2024-01-10T08:11:01;18.27;;;6.57;;
68792;SDS011;55778;54.346;10.210;2024-01-10T08:13:27;15.57;;;6.63;;
68792;SDS011;55778;54.346;10.210;2024-01-10T08:15:52;23.25;;;7.45;;
68792;SDS011;55778;54.346;10.210;2024-01-10T08:18:18;21.77;;;7.70;;
68792;SDS011;55778;54.346;10.210;2024-01-10T08:20:44;18.08;;;6.82;;
68792;SDS011;55778;54.346;10.210;2024-01-10T08:23:09;22.67;;;7.60;;
68792;SDS011;55778;54.346;10.210;2024-01-10T08:25:34;20.70;;;6.78;;
68792;SDS011;55778;54.346;10.210;2024-01-10T08:28:00;22.48;;;8.20;;
68792;SDS011;55778;54.346;10.210;2024-01-10T08:30:26;19.77;;;7.18;;
68792;SDS011;55778;54.346;10.210;2024-01-10T08:32:51;21.35;;;7.60;;
68792;SDS011;55778;54.346;10.210;2024-01-10T08:35:17;20.20;;;7.70;;
68792;SDS011;55778;54.346;10.210;2024-01-10T08:37:44;22.15;;;7.68;;
68792;SDS011;55778;54.346;10.210;2024-01-10T08:40:11;17.05;;;6.68;;
68792;SDS011;55778;54.346;10.210;2024-01-10T08:42:39;24.77;;;8.25;;
68792;SDS011;55778;54.346;10.210;2024-01-10T08:45:05;25.63;;;9.30;;
68792;SDS011;55778;54.346;10.210;2024-01-10T08:47:31;25.88;;;8.27;;
68792;SDS011;55778;54.346;10.210;2024-01-10T08:50:01;25.10;;;7.97;;
68792;SDS011;55778;54.346;10.210;2024-01-10T08:52:27;21.77;;;7.97;;
68792;SDS011;55778;54.346;10.210;2024-01-10T08:54:52;23.20;;;7.72;;
68792;SDS011;55778;54.346;10.210;2024-01-10T08:57:18;26.80;;;9.30;;
68792;SDS011;55778;54.346;10.210;2024-01-10T08:59:43;35.15;;;10.63;;
68792;SDS011;55778;54.346;10.210;2024-01-10T09:02:09;30.65;;;10.23;;
68792;SDS011;55778;54.346;10.210;2024-01-10T09:04:34;27.98;;;9.88;;
68792;SDS011;55778;54.346;10.210;2024-01-10T09:07:00;29.98;;;11.80;;
68792;SDS011;55778;54.346;10.210;2024-01-10T09:09:25;36.85;;;13.10;;
68792;SDS011;55778;54.346;10.210;2024-01-10T09:11:50;31.35;;;12.32;;
68792;SDS011;55778;54.346;10.210;2024-01-10T09:14:16;30.70;;;12.23;;
68792;SDS011;55778;54.346;10.210;2024-01-10T09:16:41;32.47;;;13.68;;
68792;SDS011;55778;54.346;10.210;2024-01-10T09:19:07;34.70;;;12.60;;
68792;SDS011;55778;54.346;10.210;2024-01-10T09:21:32;32.83;;;11.90;;
68792;SDS011;55778;54.346;10.210;2024-01-10T09:23:58;36.67;;;12.00;;
68792;SDS011;55778;54.346;10.210;2024-01-10T09:26:23;31.98;;;11.38;;
68792;SDS011;55778;54.346;10.210;2024-01-10T09:28:49;33.47;;;10.93;;
68792;SDS011;55778;54.346;10.210;2024-01-10T09:31:14;31.27;;;11.38;;
68792;SDS011;55778;54.346;10.210;2024-01-10T09:33:40;32.72;;;11.15;;
68792;SDS011;55778;54.346;10.210;2024-01-10T09:36:05;32.65;;;11.02;;
68792;SDS011;55778;54.346;10.210;2024-01-10T09:38:34;33.83;;;9.95;;
68792;SDS011;55778;54.346;10.210;2024-01-10T09:43:29;32.50;;;11.13;;
68792;SDS011;55778;54.346;10.210;2024-01-10T09:45:55;32.85;;;11.40;;
68792;SDS011;55778;54.346;10.210;2024-01-10T09:48:23;35.25;;;12.85;;
68792;SDS011;55778;54.346;10.210;2024-01-10T09:50:49;34.42;;;11.10;;
68792;SDS011;55778;54.346;10.210;2024-01-10T09:53:22;34.30;;;11.13;;
68792;SDS011;55778;54.346;10.210;2024-01-10T09:55:49;33.85;;;10.50;;
68792;SDS011;55778;54.346;10.210;2024-01-10T09:58:14;32.63;;;10.73;;
68792;SDS011;55778;54.346;10.210;2024-01-10T10:00:40;48.00;;;15.07;;
68792;SDS011;55778;54.346;10.210;2024-01-10T10:03:09;49.92;;;15.20;;
68792;SDS011;55778;54.346;10.210;2024-01-10T10:05:38;33.33;;;10.27;;
68792;SDS011;55778;54.346;10.210;2024-01-10T10:08:07;33.60;;;9.98;;
68792;SDS011;55778;54.346;10.210;2024-01-10T10:10:33;32.95;;;10.10;;
68792;SDS011;55778;54.346;10.210;2024-01-10T10:13:01;38.30;;;13.88;;
68792;SDS011;55778;54.346;10.210;2024-01-10T10:15:27;40.33;;;13.68;;
68792;SDS011;55778;54.346;10.210;2024-01-10T10:17:53;34.30;;;13.35;;
68792;SDS011;55778;54.346;10.210;2024-01-10T10:20:29;28.52;;;10.48;;
68792;SDS011;55778;54.346;10.210;2024-01-10T10:23:04;33.92;;;10.43;;
68792;SDS011;55778;54.346;10.210;2024-01-10T10:25:35;30.20;;;10.80;;
68792;SDS011;55778;54.346;10.210;2024-01-10T10:28:03;31.70;;;10.40;;
68792;SDS011;55778;54.346;10.210;2024-01-10T10:30:30;33.03;;;11.32;;
68792;SDS011;55778;54.346;10.210;2024-01-10T10:35:24;32.88;;;11.82;;
68792;SDS011;55778;54.346;10.210;2024-01-10T10:37:59;43.72;;;14.10;;
68792;SDS011;55778;54.346;10.210;2024-01-10T10:40:31;36.03;;;12.73;;
68792;SDS011;55778;54.346;10.210;2024-01-10T10:43:07;35.83;;;12.20;;
68792;SDS011;55778;54.346;10.210;2024-01-10T10:46:00;39.80;;;13.27;;
68792;SDS011;55778;54.346;10.210;2024-01-10T10:49:11;35.92;;;12.38;;
68792;SDS011;55778;54.346;10.210;2024-01-10T10:51:45;36.60;;;12.18;;
68792;SDS011;55778;54.346;10.210;2024-01-10T10:54:24;32.03;;;11.45;;
68792;SDS011;55778;54.346;10.210;2024-01-10T10:56:59;34.83;;;11.88;;
68792;SDS011;55778;54.346;10.210;2024-01-10T10:59:33;35.47;;;12.77;;
68792;SDS011;55778;54.346;10.210;2024-01-10T11:02:25;36.10;;;13.48;;
68792;SDS011;55778;54.346;10.210;2024-01-10T11:04:55;35.65;;;11.32;;
68792;SDS011;55778;54.346;10.210;2024-01-10T11:07:43;36.20;;;11.70;;
68792;SDS011;55778;54.346;10.210;2024-01-10T11:10:21;33.90;;;12.57;;
68792;SDS011;55778;54.346;10.210;2024-01-10T11:25:03;36.85;;;11.25;;
68792;SDS011;55778;54.346;10.210;2024-01-10T11:27:39;28.98;;;9.95;;
68792;SDS011;55778;54.346;10.210;2024-01-10T11:30:12;24.88;;;9.00;;
68792;SDS011;55778;54.346;10.210;2024-01-10T11:33:22;29.13;;;10.15;;
68792;SDS011;55778;54.346;10.210;2024-01-10T11:41:46;25.65;;;9.95;;
68792;SDS011;55778;54.346;10.210;2024-01-10T11:46:49;30.30;;;9.93;;
68792;SDS011;55778;54.346;10.210;2024-01-10T11:49:25;28.98;;;9.98;;
68792;SDS011;55778;54.346;10.210;2024-01-10T11:51:56;28.00;;;10.75;;
68792;SDS011;55778;54.346;10.210;2024-01-10T11:55:01;27.15;;;9.23;;
68792;SDS011;55778;54.346;10.210;2024-01-10T11:57:25;25.48;;;8.88;;
68792;SDS011;55778;54.346;10.210;2024-01-10T11:59:57;22.58;;;8.05;;
68792;SDS011;55778;54.346;10.210;2024-01-10T12:02:34;21.98;;;8.52;;
68792;SDS011;55778;54.346;10.210;2024-01-10T12:05:00;7.45;;;3.60;;
68792;SDS011;55778;54.346;10.210;2024-01-10T12:07:26;7.93;;;3.60;;
68792;SDS011;55778;54.346;10.210;2024-01-10T12:10:25;8.68;;;3.92;;
68792;SDS011;55778;54.346;10.210;2024-01-10T12:13:01;12.13;;;4.85;;
68792;SDS011;55778;54.346;10.210;2024-01-10T12:15:36;15.35;;;6.05;;
68792;SDS011;55778;54.346;10.210;2024-01-10T12:18:13;14.65;;;6.03;;
68792;SDS011;55778;54.346;10.210;2024-01-10T12:20:38;6.78;;;3.30;;
68792;SDS011;55778;54.346;10.210;2024-01-10T12:23:04;7.60;;;3.67;;
68792;SDS011;55778;54.346;10.210;2024-01-10T12:25:29;6.78;;;3.50;;
68792;SDS011;55778;54.346;10.210;2024-01-10T12:27:54;10.63;;;4.85;;
68792;SDS011;55778;54.346;10.210;2024-01-10T12:30:20;12.00;;;5.45;;
68792;SDS011;55778;54.346;10.210;2024-01-10T12:32:49;10.98;;;4.88;;
68792;SDS011;55778;54.346;10.210;2024-01-10T12:35:16;13.10;;;5.97;;
68792;SDS011;55778;54.346;10.210;2024-01-10T12:37:53;17.38;;;6.55;;
68792;SDS011;55778;54.346;10.210;2024-01-10T12:40:21;13.68;;;6.00;;
68792;SDS011;55778;54.346;10.210;2024-01-10T12:42:46;9.05;;;4.32;;
68792;SDS011;55778;54.346;10.210;2024-01-10T12:45:21;6.82;;;3.80;;
68792;SDS011;55778;54.346;10.210;2024-01-10T12:47:47;5.97;;;3.53;;
68792;SDS011;55778;54.346;10.210;2024-01-10T12:50:13;6.07;;;3.10;;
68792;SDS011;55778;54.346;10.210;2024-01-10T12:52:38;6.10;;;3.15;;
68792;SDS011;55778;54.346;10.210;2024-01-10T12:55:07;6.03;;;3.60;;
68792;SDS011;55778;54.346;10.210;2024-01-10T12:57:33;7.43;;;3.38;;
68792;SDS011;55778;54.346;10.210;2024-01-10T12:59:58;23.75;;;6.63;;
68792;SDS011;55778;54.346;10.210;2024-01-10T13:02:24;14.10;;;5.47;;
68792;SDS011;55778;54.346;10.210;2024-01-10T13:04:49;19.50;;;8.20;;
68792;SDS011;55778;54.346;10.210;2024-01-10T13:07:15;21.00;;;7.35;;
68792;SDS011;55778;54.346;10.210;2024-01-10T13:09:40;17.92;;;7.35;;
68792;SDS011;55778;54.346;10.210;2024-01-10T13:12:09;9.15;;;4.60;;
68792;SDS011;55778;54.346;10.210;2024-01-10T13:14:35;9.05;;;4.15;;
68792;SDS011;55778;54.346;10.210;2024-01-10T13:17:00;6.30;;;3.47;;
68792;SDS011;55778;54.346;10.210;2024-01-10T13:19:25;7.55;;;3.88;;
68792;SDS011;55778;54.346;10.210;2024-01-10T13:21:51;8.43;;;4.30;;
68792;SDS011;55778;54.346;10.210;2024-01-10T13:24:18;10.32;;;4.53;;
68792;SDS011;55778;54.346;10.210;2024-01-10T13:26:45;10.07;;;4.72;;
68792;SDS011;55778;54.346;10.210;2024-01-10T13:29:10;10.68;;;5.00;;
68792;SDS011;55778;54.346;10.210;2024-01-10T13:31:38;11.15;;;5.47;;
68792;SDS011;55778;54.346;10.210;2024-01-10T13:34:04;12.02;;;5.53;;
68792;SDS011;55778;54.346;10.210;2024-01-10T13:36:29;13.27;;;5.97;;
68792;SDS011;55778;54.346;10.210;2024-01-10T13:38:55;12.50;;;5.63;;
68792;SDS011;55778;54.346;10.210;2024-01-10T13:41:21;12.77;;;5.70;;
68792;SDS011;55778;54.346;10.210;2024-01-10T13:43:46;10.73;;;4.93;;
68792;SDS011;55778;54.346;10.210;2024-01-10T13:46:11;12.10;;;5.72;;
68792;SDS011;55778;54.346;10.210;2024-01-10T13:48:37;10.32;;;5.25;;
68792;SDS011;55778;54.346;10.210;2024-01-10T13:51:03;8.73;;;4.38;;
68792;SDS011;55778;54.346;10.210;2024-01-10T13:53:28;10.07;;;4.50;;
68792;SDS011;55778;54.346;10.210;2024-01-10T13:55:54;10.32;;;4.90;;
68792;SDS011;55778;54.346;10.210;2024-01-10T13:58:22;8.65;;;4.70;;
68792;SDS011;55778;54.346;10.210;2024-01-10T14:00:48;9.15;;;4.30;;
68792;SDS011;55778;54.346;10.210;2024-01-10T14:03:14;10.20;;;4.63;;
68792;SDS011;55778;54.346;10.210;2024-01-10T14:05:41;8.85;;;4.63;;
68792;SDS011;55778;54.346;10.210;2024-01-10T14:08:06;11.10;;;4.97;;
68792;SDS011;55778;54.346;10.210;2024-01-10T14:10:31;12.60;;;5.03;;
68792;SDS011;55778;54.346;10.210;2024-01-10T14:12:57;14.57;;;6.40;;
68792;SDS011;55778;54.346;10.210;2024-01-10T14:15:22;16.33;;;7.03;;
68792;SDS011;55778;54.346;10.210;2024-01-10T14:17:48;10.80;;;5.13;;
68792;SDS011;55778;54.346;10.210;2024-01-10T14:20:14;10.88;;;4.80;;
68792;SDS011;55778;54.346;10.210;2024-01-10T14:22:39;10.55;;;5.25;;
68792;SDS011;55778;54.346;10.210;2024-01-10T14:25:06;9.70;;;4.93;;
68792;SDS011;55778;54.346;10.210;2024-01-10T14:27:32;11.15;;;5.13;;
68792;SDS011;55778;54.346;10.210;2024-01-10T14:29:57;10.90;;;5.30;;
68792;SDS011;55778;54.346;10.210;2024-01-10T14:32:24;11.50;;;5.70;;
68792;SDS011;55778;54.346;10.210;2024-01-10T14:34:50;10.90;;;5.65;;
68792;SDS011;55778;54.346;10.210;2024-01-10T14:37:16;12.88;;;5.85;;
68792;SDS011;55778;54.346;10.210;2024-01-10T14:39:41;9.93;;;5.22;;
68792;SDS011;55778;54.346;10.210;2024-01-10T14:42:07;11.27;;;5.30;;
68792;SDS011;55778;54.346;10.210;2024-01-10T14:44:34;12.75;;;6.03;;
68792;SDS011;55778;54.346;10.210;2024-01-10T14:46:59;11.45;;;5.70;;
68792;SDS011;55778;54.346;10.210;2024-01-10T14:49:25;13.63;;;6.70;;
68792;SDS011;55778;54.346;10.210;2024-01-10T14:51:50;17.13;;;6.50;;
68792;SDS011;55778;54.346;10.210;2024-01-10T14:54:16;13.65;;;6.25;;
68792;SDS011;55778;54.346;10.210;2024-01-10T14:56:43;14.13;;;6.50;;
68792;SDS011;55778;54.346;10.210;2024-01-10T14:59:10;14.68;;;6.90;;
68792;SDS011;55778;54.346;10.210;2024-01-10T15:01:36;14.95;;;6.30;;
68792;SDS011;55778;54.346;10.210;2024-01-10T15:04:02;12.35;;;6.07;;
68792;SDS011;55778;54.346;10.210;2024-01-10T15:06:28;17.80;;;7.65;;
68792;SDS011;55778;54.346;10.210;2024-01-10T15:08:54;14.05;;;6.68;;
68792;SDS011;55778;54.346;10.210;2024-01-10T15:11:20;21.55;;;9.27;;